Time;durP1;ratioP1;P1;durP2;ratioP2;P2;SDS_P1;SDS_P2;PMS_P1;PMS_P2;Temp;Humidity;BMP_temperature;BMP_pressure;BME280_temperature;BME280_humidity;BME280_pressure;Samples;Min_cycle;Max_cycle;Signal;HPM_P1;HPM_P2
2021/07/16 00:01:36;;;;;;;24.45;12.25;;;17.70;99.90;;;;;;5061799;28;20168;-66
2021/07/16 00:04:02;;;;;;;19.33;12.40;;;17.80;99.90;;;;;;5065625;28;20192;-66
2021/07/16 00:06:28;;;;;;;19.95;12.13;;;17.70;99.90;;;;;;5064191;28;20246;-66
2021/07/16 00:08:54;;;;;;;22.55;13.15;;;17.50;99.90;;;;;;5065849;28;20200;-66
2021/07/16 00:11:20;;;;;;;16.63;11.35;;;17.50;99.90;;;;;;5063357;28;20168;-65
2021/07/16 00:13:45;;;;;;;20.65;11.32;;;17.50;99.90;;;;;;5065816;28;20228;-65
2021/07/16 00:16:11;;;;;;;15.13;10.18;;;17.50;99.90;;;;;;5065755;28;20177;-66
2021/07/16 00:18:37;;;;;;;16.77;10.73;;;17.60;99.90;;;;;;5065452;28;20175;-65
2021/07/16 00:21:03;;;;;;;19.75;11.05;;;17.50;99.90;;;;;;5063240;28;20215;-66
2021/07/16 00:23:30;;;;;;;24.02;10.68;;;17.60;99.90;;;;;;5065707;28;20626;-65
2021/07/16 00:25:56;;;;;;;16.40;10.05;;;17.70;99.90;;;;;;5064852;28;20176;-66
2021/07/16 00:28:21;;;;;;;19.02;10.10;;;17.80;99.90;;;;;;5063614;28;20732;-66
2021/07/16 00:30:48;;;;;;;17.48;8.70;;;17.80;99.90;;;;;;5063156;28;20164;-66
2021/07/16 00:33:14;;;;;;;13.05;9.25;;;17.70;99.90;;;;;;5063860;28;20638;-65
2021/07/16 00:35:40;;;;;;;17.02;9.23;;;17.70;99.90;;;;;;5065582;28;20203;-65
2021/07/16 00:38:06;;;;;;;20.02;9.73;;;17.70;99.90;;;;;;5065594;28;20232;-65
2021/07/16 00:40:32;;;;;;;18.60;9.73;;;17.80;99.90;;;;;;5062757;28;20442;-66
2021/07/16 00:42:58;;;;;;;24.38;9.77;;;17.80;99.90;;;;;;5064936;28;20165;-65
2021/07/16 00:45:24;;;;;;;15.10;9.65;;;17.80;99.90;;;;;;5065245;28;20169;-65
2021/07/16 00:47:50;;;;;;;23.10;10.27;;;17.80;99.90;;;;;;5064862;28;20188;-65
2021/07/16 00:50:20;;;;;;;20.77;10.45;;;17.80;99.90;;;;;;5064743;28;20615;-66
2021/07/16 00:52:47;;;;;;;15.73;10.65;;;17.80;99.90;;;;;;5063774;28;20156;-65
2021/07/16 00:55:14;;;;;;;17.60;10.52;;;17.80;99.90;;;;;;5065157;28;20165;-66
2021/07/16 00:57:43;;;;;;;21.75;10.85;;;17.80;99.90;;;;;;5065098;28;20617;-65
2021/07/16 01:00:10;;;;;;;19.73;10.27;;;17.70;99.90;;;;;;5065335;28;20232;-65
2021/07/16 01:02:36;;;;;;;15.32;10.32;;;17.50;99.90;;;;;;5062116;28;20181;-65
2021/07/16 01:05:04;;;;;;;17.65;11.35;;;17.50;99.90;;;;;;5065432;28;20164;-65
2021/07/16 01:07:29;;;;;;;15.85;10.80;;;17.70;99.90;;;;;;5064886;28;20204;-66
2021/07/16 01:09:55;;;;;;;16.02;10.32;;;17.70;99.90;;;;;;5065389;28;20157;-66
2021/07/16 01:12:22;;;;;;;19.60;9.98;;;17.70;99.90;;;;;;5062711;28;20168;-65
2021/07/16 01:14:49;;;;;;;19.90;10.38;;;17.70;99.90;;;;;;5065376;28;20223;-66
2021/07/16 01:17:15;;;;;;;18.33;10.23;;;17.60;99.90;;;;;;5064589;28;20191;-65
2021/07/16 01:19:52;;;;;;;18.15;10.23;;;17.50;99.90;;;;;;5065366;28;20228;-65
2021/07/16 01:22:21;;;;;;;18.40;9.95;;;17.40;99.90;;;;;;5062573;28;20168;-65
2021/07/16 01:24:47;;;;;;;20.52;10.95;;;17.50;99.90;;;;;;5065229;28;20176;-65
2021/07/16 01:27:13;;;;;;;26.50;12.05;;;17.50;99.90;;;;;;5064768;28;20189;-65
2021/07/16 01:29:39;;;;;;;20.75;12.05;;;17.50;99.90;;;;;;5065204;28;20157;-65
2021/07/16 01:32:05;;;;;;;23.00;12.23;;;17.50;99.90;;;;;;5062195;28;20171;-65
2021/07/16 01:34:31;;;;;;;28.10;12.30;;;17.60;99.90;;;;;;5064930;28;20153;-65
2021/07/16 01:36:57;;;;;;;35.25;13.32;;;17.40;99.90;;;;;;5064905;28;20229;-65
2021/07/16 01:39:22;;;;;;;26.02;13.25;;;17.30;99.90;;;;;;5068635;28;20513;-65
2021/07/16 01:41:48;;;;;;;22.80;12.23;;;17.30;99.90;;;;;;5066268;28;20626;-65
2021/07/16 01:44:14;;;;;;;36.60;14.18;;;17.30;99.90;;;;;;5068391;28;20164;-65
2021/07/16 01:46:39;;;;;;;24.35;13.35;;;17.40;99.90;;;;;;5068645;28;20183;-65
2021/07/16 01:49:05;;;;;;;31.98;14.07;;;17.50;99.90;;;;;;5068175;28;20194;-65
2021/07/16 01:51:30;;;;;;;33.25;14.43;;;17.40;99.90;;;;;;5065841;28;20165;-65
2021/07/16 01:53:58;;;;;;;26.98;14.30;;;17.50;99.90;;;;;;5068459;28;20546;-65
2021/07/16 01:56:24;;;;;;;31.23;13.63;;;17.60;99.90;;;;;;5068309;28;20168;-65
2021/07/16 01:58:50;;;;;;;29.45;14.48;;;17.60;99.90;;;;;;5068450;28;20168;-66
2021/07/16 02:01:16;;;;;;;33.70;15.20;;;17.60;99.90;;;;;;5065794;28;20187;-65
2021/07/16 02:03:45;;;;;;;38.45;14.85;;;17.60;99.90;;;;;;5067894;28;20177;-65
2021/07/16 02:06:11;;;;;;;34.97;14.13;;;17.60;99.90;;;;;;5068120;28;20216;-65
2021/07/16 02:08:37;;;;;;;32.40;13.48;;;17.40;99.90;;;;;;5067962;28;20262;-65
2021/07/16 02:11:03;;;;;;;38.25;14.35;;;17.50;99.90;;;;;;5065587;28;20169;-65
2021/07/16 02:13:29;;;;;;;30.27;13.13;;;17.40;99.90;;;;;;5067821;28;20163;-65
2021/07/16 02:15:55;;;;;;;30.80;12.43;;;17.30;99.90;;;;;;5067960;28;20179;-65
2021/07/16 02:18:22;;;;;;;27.30;12.80;;;17.30;99.90;;;;;;5067373;28;20198;-65
2021/07/16 02:20:48;;;;;;;31.00;13.43;;;17.20;99.90;;;;;;5065452;28;20165;-65
2021/07/16 02:23:17;;;;;;;32.50;12.80;;;17.30;99.90;;;;;;5066385;28;20302;-65
2021/07/16 02:25:43;;;;;;;28.90;13.23;;;17.30;99.90;;;;;;5067849;28;20555;-65
2021/07/16 02:28:16;;;;;;;33.25;12.70;;;17.30;99.90;;;;;;5067754;28;20193;-65
2021/07/16 02:30:42;;;;;;;25.15;12.55;;;17.20;99.90;;;;;;5065311;28;20404;-65
2021/07/16 02:33:08;;;;;;;32.40;13.63;;;17.30;99.90;;;;;;5067417;28;20251;-65
2021/07/16 02:35:34;;;;;;;25.83;13.25;;;17.40;99.90;;;;;;5067670;28;20240;-65
2021/07/16 02:38:01;;;;;;;33.10;14.07;;;17.30;99.90;;;;;;5067606;28;20247;-65
2021/07/16 02:40:27;;;;;;;28.77;13.23;;;17.40;99.90;;;;;;5064420;28;20164;-66
2021/07/16 02:42:53;;;;;;;31.13;12.55;;;17.40;99.90;;;;;;5066809;28;20172;-65
2021/07/16 02:45:22;;;;;;;35.70;13.73;;;17.40;99.90;;;;;;5067337;28;20165;-65
2021/07/16 02:47:49;;;;;;;29.33;13.13;;;17.40;99.90;;;;;;5067170;28;20184;-65
2021/07/16 02:50:21;;;;;;;21.27;12.68;;;17.40;99.90;;;;;;5066462;28;20157;-66
2021/07/16 02:52:48;;;;;;;35.58;14.82;;;17.40;99.90;;;;;;5065881;28;20641;-65
2021/07/16 02:55:13;;;;;;;24.70;12.02;;;17.40;99.90;;;;;;5065875;28;20172;-66
2021/07/16 02:57:39;;;;;;;24.67;13.20;;;17.40;99.90;;;;;;5067320;28;20251;-65
2021/07/16 03:00:09;;;;;;;29.23;13.30;;;17.40;99.90;;;;;;5067306;28;20187;-65
2021/07/16 03:02:39;;;;;;;27.73;13.52;;;17.30;99.90;;;;;;5063907;28;20243;-65
2021/07/16 03:05:05;;;;;;;27.80;11.45;;;17.20;99.90;;;;;;5065865;28;20252;-65
2021/07/16 03:07:31;;;;;;;27.67;11.73;;;17.30;99.90;;;;;;5066712;28;20294;-65
2021/07/16 03:09:57;;;;;;;30.40;13.02;;;17.30;99.90;;;;;;5067017;28;20157;-65
2021/07/16 03:12:22;;;;;;;25.98;11.48;;;17.30;99.90;;;;;;5064258;28;20168;-65
2021/07/16 03:14:48;;;;;;;25.13;11.38;;;17.20;99.90;;;;;;5066811;28;20641;-65
2021/07/16 03:17:13;;;;;;;29.67;12.32;;;17.20;99.90;;;;;;5066114;28;20169;-66
2021/07/16 03:19:39;;;;;;;26.23;11.45;;;17.20;99.90;;;;;;5067007;28;20157;-66
2021/07/16 03:22:05;;;;;;;24.05;11.27;;;17.20;99.90;;;;;;5064246;28;20526;-65
2021/07/16 03:24:30;;;;;;;23.98;11.82;;;17.10;99.90;;;;;;5066625;28;20590;-65
2021/07/16 03:26:56;;;;;;;25.05;12.20;;;17.20;99.90;;;;;;5066618;28;20259;-65
2021/07/16 03:29:22;;;;;;;29.38;11.75;;;17.10;99.90;;;;;;5065379;28;20171;-65
2021/07/16 03:31:48;;;;;;;26.48;12.35;;;17.10;99.90;;;;;;5064052;28;20251;-65
2021/07/16 03:34:13;;;;;;;23.58;10.40;;;17.20;99.90;;;;;;5065919;28;20172;-65
2021/07/16 03:36:39;;;;;;;23.60;11.30;;;17.30;99.90;;;;;;5066448;28;20206;-65
2021/07/16 03:39:05;;;;;;;26.45;10.80;;;17.30;99.90;;;;;;5066315;28;20172;-65
2021/07/16 03:41:31;;;;;;;19.92;11.48;;;17.30;99.90;;;;;;5063837;28;20161;-65
2021/07/16 03:43:56;;;;;;;22.85;10.93;;;17.30;99.90;;;;;;5066313;28;20164;-66
2021/07/16 03:46:27;;;;;;;19.67;12.02;;;17.20;99.90;;;;;;5064887;28;20238;-65
2021/07/16 03:48:54;;;;;;;17.08;10.85;;;17.30;99.90;;;;;;5066028;28;20192;-65
2021/07/16 03:51:20;;;;;;;24.85;11.13;;;17.20;99.90;;;;;;5063632;28;20176;-65
2021/07/16 03:53:45;;;;;;;27.10;11.63;;;17.20;99.90;;;;;;5066127;28;20161;-65
2021/07/16 03:56:11;;;;;;;25.50;11.13;;;17.30;99.90;;;;;;5066182;28;20242;-65
2021/07/16 03:58:36;;;;;;;22.70;10.82;;;17.20;99.90;;;;;;5066278;28;20218;-65
2021/07/16 04:01:02;;;;;;;20.73;10.40;;;17.20;99.90;;;;;;5062607;28;20222;-65
2021/07/16 04:03:28;;;;;;;26.73;10.45;;;17.30;99.90;;;;;;5065284;28;20630;-65
2021/07/16 04:05:53;;;;;;;24.52;11.43;;;17.20;99.90;;;;;;5065660;28;20212;-66
2021/07/16 04:08:19;;;;;;;16.77;9.95;;;17.30;99.90;;;;;;5065665;28;20189;-65
2021/07/16 04:10:45;;;;;;;24.75;11.10;;;17.40;99.90;;;;;;5063406;28;20160;-66
2021/07/16 04:13:13;;;;;;;22.73;9.82;;;17.40;99.90;;;;;;5065831;28;20160;-66
2021/07/16 04:15:41;;;;;;;22.23;11.52;;;17.50;99.90;;;;;;5065879;28;20161;-65
2021/07/16 04:18:07;;;;;;;17.00;11.13;;;17.40;99.90;;;;;;5065398;28;20188;-65
2021/07/16 04:20:34;;;;;;;27.08;11.27;;;17.40;99.90;;;;;;5063428;28;20161;-66
2021/07/16 04:23:01;;;;;;;15.50;10.23;;;17.30;99.90;;;;;;5065973;28;20518;-66
2021/07/16 04:25:27;;;;;;;27.30;12.00;;;17.40;99.90;;;;;;5065622;28;20319;-65
2021/07/16 04:27:54;;;;;;;18.45;10.55;;;17.30;99.90;;;;;;5065593;28;20686;-65
2021/07/16 04:30:22;;;;;;;24.65;10.88;;;17.30;99.90;;;;;;5064410;28;20207;-65
2021/07/16 04:32:52;;;;;;;28.35;11.07;;;17.30;99.90;;;;;;5064221;28;20164;-66
2021/07/16 04:35:18;;;;;;;29.65;11.27;;;17.30;99.90;;;;;;5064197;28;20164;-65
2021/07/16 04:37:45;;;;;;;23.08;10.52;;;17.30;99.90;;;;;;5065640;28;20206;-65
2021/07/16 04:40:15;;;;;;;24.45;10.30;;;17.20;99.90;;;;;;5064332;28;20182;-65
2021/07/16 04:42:41;;;;;;;23.52;10.50;;;17.20;99.90;;;;;;5062370;28;20164;-65
2021/07/16 04:45:08;;;;;;;23.20;11.10;;;17.20;99.90;;;;;;5065657;28;20165;-65
2021/07/16 04:47:34;;;;;;;17.75;10.43;;;17.20;99.90;;;;;;5064757;28;20196;-65
2021/07/16 04:50:00;;;;;;;19.70;10.73;;;17.20;99.90;;;;;;5065466;28;20163;-65
2021/07/16 04:52:25;;;;;;;17.73;9.80;;;17.20;99.90;;;;;;5062627;28;20161;-65
2021/07/16 04:54:51;;;;;;;23.95;10.02;;;17.30;99.90;;;;;;5064037;28;20172;-65
2021/07/16 04:57:17;;;;;;;23.50;10.43;;;17.20;99.90;;;;;;5065180;28;20186;-65
2021/07/16 04:59:42;;;;;;;16.08;9.27;;;17.10;99.90;;;;;;5065453;28;20661;-66
2021/07/16 05:02:09;;;;;;;25.38;10.23;;;17.10;99.90;;;;;;5062565;28;20157;-65
2021/07/16 05:04:34;;;;;;;20.48;10.35;;;17.10;99.90;;;;;;5064945;28;20199;-65
2021/07/16 05:07:00;;;;;;;21.08;8.82;;;17.20;99.90;;;;;;5065002;28;20208;-66
2021/07/16 05:09:26;;;;;;;18.67;9.35;;;17.30;99.90;;;;;;5065095;28;20177;-65
2021/07/16 05:11:52;;;;;;;19.20;9.35;;;17.40;99.90;;;;;;5062775;28;20388;-65
2021/07/16 05:14:18;;;;;;;20.52;9.27;;;17.40;99.90;;;;;;5068457;28;20161;-65
2021/07/16 05:16:44;;;;;;;26.27;10.32;;;17.40;99.90;;;;;;5068981;28;20169;-65
2021/07/16 05:19:10;;;;;;;25.13;10.15;;;17.30;99.90;;;;;;5068733;28;20179;-65
2021/07/16 05:21:36;;;;;;;20.77;9.75;;;17.30;99.90;;;;;;5066791;28;20228;-66
2021/07/16 05:24:02;;;;;;;22.27;9.38;;;17.20;99.90;;;;;;5068801;28;20186;-65
2021/07/16 05:26:28;;;;;;;23.48;8.95;;;17.20;99.90;;;;;;5068767;28;20169;-66
2021/07/16 05:28:53;;;;;;;23.27;7.80;;;17.20;99.90;;;;;;5067465;28;20227;-66
2021/07/16 05:31:19;;;;;;;22.50;8.52;;;17.20;99.90;;;;;;5066224;28;20630;-66
2021/07/16 05:33:46;;;;;;;20.00;8.32;;;17.30;99.90;;;;;;5068332;28;20172;-65
2021/07/16 05:36:12;;;;;;;17.95;7.53;;;17.30;99.90;;;;;;5068572;28;20204;-66
2021/07/16 05:38:38;;;;;;;15.43;7.03;;;17.30;99.90;;;;;;5068781;28;20169;-66
2021/07/16 05:41:08;;;;;;;16.13;6.70;;;17.40;99.90;;;;;;5065010;28;20157;-66
2021/07/16 05:43:34;;;;;;;25.05;6.88;;;17.30;99.90;;;;;;5068406;28;20683;-66
2021/07/16 05:46:01;;;;;;;15.93;7.25;;;17.30;99.90;;;;;;5068698;28;20165;-65
2021/07/16 05:48:26;;;;;;;26.42;7.00;;;17.20;99.90;;;;;;5067827;28;20196;-65
2021/07/16 05:50:52;;;;;;;19.95;6.30;;;17.10;99.90;;;;;;5064789;28;20217;-67
2021/07/16 05:53:18;;;;;;;19.50;7.18;;;17.10;99.90;;;;;;5068261;28;20164;-66
2021/07/16 05:55:44;;;;;;;23.55;7.32;;;17.10;99.90;;;;;;5068341;28;20164;-65
2021/07/16 05:58:11;;;;;;;18.05;6.35;;;17.30;99.90;;;;;;5068407;28;20160;-66
2021/07/16 06:00:37;;;;;;;25.63;7.80;;;17.20;99.90;;;;;;5065886;28;20169;-66
2021/07/16 06:03:04;;;;;;;20.85;6.28;;;17.30;99.90;;;;;;5068056;28;20240;-65
2021/07/16 06:05:32;;;;;;;16.27;6.80;;;17.20;99.90;;;;;;5067946;28;20179;-65
2021/07/16 06:07:58;;;;;;;17.77;6.50;;;17.30;99.90;;;;;;5068026;28;20192;-65
2021/07/16 06:10:24;;;;;;;18.67;6.82;;;17.30;99.90;;;;;;5066749;28;20160;-66
2021/07/16 06:12:50;;;;;;;24.17;6.85;;;17.20;99.90;;;;;;5067192;28;20202;-65
2021/07/16 06:15:16;;;;;;;19.55;7.20;;;17.20;99.90;;;;;;5067873;28;20168;-65
2021/07/16 06:17:42;;;;;;;24.58;6.90;;;17.40;99.90;;;;;;5067722;28;20193;-66
2021/07/16 06:20:09;;;;;;;21.05;6.97;;;17.60;99.90;;;;;;5068116;28;20187;-66
2021/07/16 06:22:35;;;;;;;21.70;7.10;;;17.50;99.90;;;;;;5065299;28;20232;-65
2021/07/16 06:25:01;;;;;;;18.27;6.40;;;17.60;99.90;;;;;;5066756;28;20168;-66
2021/07/16 06:27:27;;;;;;;16.77;6.95;;;17.40;99.90;;;;;;5067528;28;20196;-65
2021/07/16 06:29:53;;;;;;;21.70;7.18;;;17.40;99.90;;;;;;5066528;28;20165;-65
2021/07/16 06:32:19;;;;;;;17.88;6.88;;;17.50;99.90;;;;;;5064906;28;20701;-66
2021/07/16 06:34:45;;;;;;;18.58;6.82;;;17.70;99.90;;;;;;5067524;28;20245;-66
2021/07/16 06:37:10;;;;;;;13.40;6.65;;;17.80;99.90;;;;;;5068020;28;20164;-66
2021/07/16 06:39:36;;;;;;;19.70;6.97;;;18.00;99.90;;;;;;5067814;28;20510;-65
2021/07/16 06:42:02;;;;;;;24.65;7.10;;;18.00;99.90;;;;;;5065027;28;20172;-65
2021/07/16 06:44:29;;;;;;;22.65;6.75;;;17.90;99.90;;;;;;5067347;28;20175;-66
2021/07/16 06:46:55;;;;;;;17.02;6.63;;;17.90;99.90;;;;;;5065991;28;20181;-66
2021/07/16 06:49:26;;;;;;;18.25;6.80;;;18.00;99.90;;;;;;5066952;28;20194;-65
2021/07/16 06:51:52;;;;;;;22.92;6.78;;;18.10;99.90;;;;;;5065004;28;20161;-66
2021/07/16 06:54:18;;;;;;;21.77;6.90;;;18.20;99.90;;;;;;5066979;28;20172;-66
2021/07/16 06:56:43;;;;;;;18.83;7.32;;;18.10;99.90;;;;;;5067177;28;20176;-66
2021/07/16 06:59:12;;;;;;;16.80;7.03;;;18.10;99.90;;;;;;5065998;28;20239;-65
2021/07/16 07:01:38;;;;;;;18.73;6.60;;;18.30;99.90;;;;;;5064751;28;20187;-65
2021/07/16 07:04:04;;;;;;;21.05;7.18;;;18.30;99.90;;;;;;5066744;28;20176;-65
2021/07/16 07:06:30;;;;;;;16.40;6.53;;;18.20;99.90;;;;;;5066810;28;20212;-66
2021/07/16 07:08:55;;;;;;;12.68;5.70;;;18.20;99.90;;;;;;5066916;28;20196;-66
2021/07/16 07:11:21;;;;;;;16.20;6.38;;;18.20;99.90;;;;;;5064247;28;20173;-66
2021/07/16 07:13:46;;;;;;;13.32;6.20;;;18.20;99.90;;;;;;5066865;28;20160;-66
2021/07/16 07:16:15;;;;;;;21.48;6.85;;;18.40;99.90;;;;;;5066717;28;20216;-66
2021/07/16 07:18:41;;;;;;;21.48;5.15;;;18.60;99.90;;;;;;5066638;28;20179;-65
2021/07/16 07:21:07;;;;;;;16.02;5.10;;;18.60;99.90;;;;;;5064409;28;20172;-66
2021/07/16 07:23:32;;;;;;;21.00;5.55;;;18.70;99.90;;;;;;5066457;28;20240;-65
2021/07/16 07:25:58;;;;;;;18.50;5.13;;;18.80;99.90;;;;;;5066780;28;20626;-66
2021/07/16 07:28:24;;;;;;;13.77;4.97;;;18.70;99.90;;;;;;5066107;28;20263;-66
2021/07/16 07:30:49;;;;;;;19.05;5.65;;;18.60;99.90;;;;;;5064048;28;20161;-66
2021/07/16 07:33:15;;;;;;;24.80;4.72;;;18.90;99.90;;;;;;5065998;28;20169;-66
2021/07/16 07:35:41;;;;;;;17.10;4.97;;;18.90;99.90;;;;;;5066518;28;20182;-65
2021/07/16 07:38:07;;;;;;;20.20;5.30;;;18.90;99.90;;;;;;5066551;28;20187;-66
2021/07/16 07:40:33;;;;;;;22.27;5.60;;;18.80;99.90;;;;;;5064090;28;20328;-66
2021/07/16 07:43:05;;;;;;;20.27;4.72;;;18.70;99.90;;;;;;5066029;28;20160;-66
2021/07/16 07:45:31;;;;;;;21.73;5.50;;;18.70;99.90;;;;;;5064542;28;20472;-66
2021/07/16 07:47:57;;;;;;;20.73;5.03;;;18.60;99.90;;;;;;5065619;28;20188;-66
2021/07/16 07:50:23;;;;;;;21.88;5.38;;;18.50;99.90;;;;;;5064960;28;20171;-66
2021/07/16 07:52:50;;;;;;;19.05;5.30;;;18.60;99.90;;;;;;5065095;28;20153;-66
2021/07/16 07:55:17;;;;;;;19.77;4.75;;;18.70;99.90;;;;;;5065678;28;20161;-66
2021/07/16 07:57:43;;;;;;;13.90;4.63;;;18.70;99.90;;;;;;5065944;28;20179;-66
2021/07/16 08:00:18;;;;;;;19.50;4.38;;;18.60;99.90;;;;;;5066014;28;20196;-66
2021/07/16 08:02:44;;;;;;;18.10;5.18;;;18.50;99.90;;;;;;5063809;28;20175;-65
2021/07/16 08:05:10;;;;;;;15.52;4.72;;;18.60;99.90;;;;;;5065871;28;20169;-66
2021/07/16 08:07:37;;;;;;;23.85;5.18;;;18.80;99.90;;;;;;5065661;28;20213;-66
2021/07/16 08:10:08;;;;;;;18.50;4.55;;;18.80;99.90;;;;;;5066023;28;20727;-66
2021/07/16 08:12:34;;;;;;;17.35;4.75;;;18.90;99.90;;;;;;5063004;28;20160;-65
2021/07/16 08:15:01;;;;;;;22.23;5.05;;;18.90;99.90;;;;;;5065768;28;20153;-66
2021/07/16 08:17:26;;;;;;;15.55;4.63;;;18.80;99.90;;;;;;5065187;28;20320;-66
2021/07/16 08:19:52;;;;;;;23.17;5.15;;;18.90;99.90;;;;;;5065805;28;20168;-66
2021/07/16 08:22:18;;;;;;;19.45;5.20;;;19.00;99.90;;;;;;5062656;28;20177;-65
2021/07/16 08:24:44;;;;;;;21.55;4.90;;;19.20;99.90;;;;;;5064284;28;20172;-65
2021/07/16 08:27:09;;;;;;;13.57;4.63;;;19.30;99.90;;;;;;5064310;28;20175;-65
2021/07/16 08:29:35;;;;;;;21.45;4.00;;;19.60;99.90;;;;;;5065626;28;20161;-66
2021/07/16 08:32:01;;;;;;;16.52;5.30;;;19.80;99.90;;;;;;5062950;28;20168;-66
2021/07/16 08:34:27;;;;;;;15.90;4.53;;;19.90;99.90;;;;;;5064940;28;20164;-66
2021/07/16 08:36:53;;;;;;;21.13;4.95;;;19.70;99.90;;;;;;5065546;28;20169;-65
2021/07/16 08:39:19;;;;;;;27.77;4.85;;;19.70;99.90;;;;;;5065249;28;20161;-66
2021/07/16 08:41:44;;;;;;;23.13;4.95;;;20.00;99.90;;;;;;5062950;28;20157;-66
2021/07/16 08:44:10;;;;;;;24.50;4.65;;;20.20;99.90;;;;;;5065119;28;20191;-66
2021/07/16 08:46:36;;;;;;;16.88;4.25;;;20.00;99.90;;;;;;5065602;28;20157;-67
2021/07/16 08:49:03;;;;;;;16.33;3.92;;;20.10;99.90;;;;;;5067015;28;20196;-66
2021/07/16 08:51:28;;;;;;;22.05;5.05;;;19.70;99.90;;;;;;5066447;28;20164;-66
2021/07/16 08:53:55;;;;;;;17.52;4.32;;;19.90;99.90;;;;;;5069119;28;20171;-66
2021/07/16 08:56:23;;;;;;;21.20;4.65;;;19.60;99.90;;;;;;5069271;28;20232;-66
2021/07/16 08:58:49;;;;;;;25.20;5.35;;;19.40;99.90;;;;;;5069148;28;20534;-66
2021/07/16 09:01:15;;;;;;;23.73;5.85;;;19.50;99.90;;;;;;5065451;28;20163;-66
2021/07/16 09:04:05;;;;;;;20.42;4.80;;;19.50;99.90;;;;;;5068671;28;20246;-66
2021/07/16 09:06:48;;;;;;;17.00;4.63;;;19.80;99.90;;;;;;5068695;28;20385;-66
2021/07/16 09:09:16;;;;;;;21.95;4.43;;;20.00;99.90;;;;;;5068516;28;20200;-66
2021/07/16 09:11:45;;;;;;;27.00;5.07;;;19.90;99.90;;;;;;5066208;28;20248;-66
2021/07/16 09:14:20;;;;;;;26.45;5.13;;;19.70;99.90;;;;;;5068779;28;20157;-66
2021/07/16 09:17:15;;;;;;;16.40;4.65;;;19.60;99.90;;;;;;5068408;28;20176;-66
2021/07/16 09:19:48;;;;;;;20.80;4.20;;;19.80;99.90;;;;;;5067716;28;20200;-66
2021/07/16 09:22:16;;;;;;;27.42;5.00;;;19.90;99.90;;;;;;5066058;28;20167;-66
2021/07/16 09:24:59;;;;;;;17.85;4.22;;;20.00;99.90;;;;;;5067515;28;20711;-66
2021/07/16 09:27:28;;;;;;;23.90;4.40;;;20.30;99.90;;;;;;5068206;28;20275;-65
2021/07/16 09:29:54;;;;;;;18.92;3.85;;;20.40;99.90;;;;;;5067750;28;20172;-65
2021/07/16 09:32:19;;;;;;;27.33;4.78;;;20.30;99.90;;;;;;5065927;28;20165;-66
2021/07/16 09:34:51;;;;;;;23.83;4.18;;;19.90;99.90;;;;;;5068167;28;20165;-65
2021/07/16 09:37:17;;;;;;;26.98;4.53;;;19.80;99.90;;;;;;5068348;28;20173;-66
2021/07/16 09:39:47;;;;;;;26.60;4.72;;;19.80;99.90;;;;;;5068659;28;20235;-66
2021/07/16 09:42:13;;;;;;;18.75;4.35;;;20.00;99.90;;;;;;5064638;28;20179;-65
2021/07/16 09:44:45;;;;;;;17.38;4.35;;;20.10;99.90;;;;;;5068311;28;20167;-65
2021/07/16 09:47:21;;;;;;;19.65;3.75;;;20.20;99.90;;;;;;5068065;28;20191;-65
2021/07/16 09:50:03;;;;;;;21.08;4.25;;;20.60;99.90;;;;;;5067933;28;20172;-65
2021/07/16 09:52:29;;;;;;;21.38;4.22;;;20.90;99.90;;;;;;5065651;28;20165;-65
2021/07/16 09:55:13;;;;;;;26.35;4.38;;;21.10;99.90;;;;;;5068197;28;20653;-65
2021/07/16 09:57:57;;;;;;;25.45;4.85;;;20.90;99.90;;;;;;5068013;28;20176;-65
2021/07/16 10:00:25;;;;;;;28.08;4.43;;;21.00;99.90;;;;;;5066857;28;20179;-65
2021/07/16 10:02:55;;;;;;;23.35;4.32;;;20.90;99.90;;;;;;5066952;28;20187;-65
2021/07/16 10:05:22;;;;;;;21.30;4.97;;;20.90;99.90;;;;;;5067325;28;20153;-65
2021/07/16 10:07:48;;;;;;;30.48;4.72;;;20.70;99.90;;;;;;5067918;28;20712;-65
2021/07/16 10:10:16;;;;;;;17.48;4.22;;;20.60;99.90;;;;;;5067820;28;20187;-66
2021/07/16 10:12:44;;;;;;;25.02;3.88;;;20.40;99.90;;;;;;5065473;28;20595;-65
2021/07/16 10:15:14;;;;;;;21.92;4.43;;;20.00;99.90;;;;;;5066249;28;20160;-65
2021/07/16 10:17:40;;;;;;;21.50;4.28;;;20.20;99.90;;;;;;5067687;28;20191;-65
2021/07/16 10:20:19;;;;;;;23.77;4.25;;;20.00;99.90;;;;;;5067900;28;20726;-65
2021/07/16 10:22:48;;;;;;;18.52;4.68;;;19.80;99.90;;;;;;5066671;28;20224;-66
2021/07/16 10:25:17;;;;;;;21.05;4.45;;;19.80;99.90;;;;;;5066878;28;20161;-66
2021/07/16 10:27:44;;;;;;;22.05;4.68;;;19.80;99.90;;;;;;5067153;28;20197;-65
2021/07/16 10:30:12;;;;;;;18.38;4.82;;;19.80;99.90;;;;;;5067760;28;20225;-65
2021/07/16 10:32:48;;;;;;;14.60;4.50;;;19.40;99.90;;;;;;5064899;28;20654;-66
2021/07/16 10:35:16;;;;;;;25.88;5.00;;;19.40;99.90;;;;;;5067350;28;20153;-65
2021/07/16 10:37:41;;;;;;;23.08;4.60;;;19.50;99.90;;;;;;5067458;28;20161;-66
2021/07/16 10:40:08;;;;;;;21.17;4.60;;;19.60;99.90;;;;;;5067168;28;20678;-65
2021/07/16 10:42:44;;;;;;;15.85;4.45;;;19.80;99.90;;;;;;5064335;28;20199;-66
2021/07/16 10:45:10;;;;;;;29.17;4.97;;;19.80;99.90;;;;;;5067359;28;20222;-65
2021/07/16 10:47:39;;;;;;;28.45;5.15;;;19.90;99.90;;;;;;5066951;28;20188;-65
2021/07/16 10:50:07;;;;;;;27.67;5.35;;;19.70;99.90;;;;;;5067373;28;20283;-65
2021/07/16 10:52:47;;;;;;;30.13;6.00;;;19.80;99.90;;;;;;5064481;28;20176;-65
2021/07/16 10:55:14;;;;;;;16.52;5.05;;;19.80;99.90;;;;;;5065387;28;20161;-65
2021/07/16 10:57:46;;;;;;;21.42;5.53;;;19.60;99.90;;;;;;5067022;28;20642;-65
2021/07/16 11:00:33;;;;;;;20.15;5.28;;;19.90;99.90;;;;;;5065825;28;20172;-66
2021/07/16 11:03:43;;;;;;;22.25;5.70;;;19.80;99.90;;;;;;5066493;28;20184;-65
2021/07/16 11:06:14;;;;;;;22.35;4.60;;;20.00;99.90;;;;;;5061343;28;20247;-65
2021/07/16 11:08:40;;;;;;;16.10;4.88;;;19.90;99.90;;;;;;5065090;28;20192;-65
2021/07/16 11:11:16;;;;;;;24.02;5.40;;;20.20;99.90;;;;;;5062514;28;20184;-65
2021/07/16 11:13:48;;;;;;;22.00;5.07;;;20.30;99.90;;;;;;5066790;28;20176;-65
2021/07/16 11:16:29;;;;;;;19.65;5.57;;;20.50;99.90;;;;;;5066305;28;20164;-65
2021/07/16 11:19:15;;;;;;;22.05;5.03;;;20.70;99.90;;;;;;5065036;28;20252;-65
2021/07/16 11:21:46;;;;;;;16.92;4.47;;;20.90;99.90;;;;;;5063116;28;20165;-65
2021/07/16 11:24:15;;;;;;;24.02;5.47;;;20.60;99.90;;;;;;5066356;28;20168;-65
2021/07/16 11:26:51;;;;;;;17.42;5.18;;;20.20;99.90;;;;;;5065279;28;20186;-65
2021/07/16 11:29:19;;;;;;;24.17;5.53;;;20.10;99.90;;;;;;5066047;28;20196;-65
2021/07/16 11:31:45;;;;;;;22.83;4.60;;;20.40;99.90;;;;;;5063855;28;20164;-65
2021/07/16 11:34:15;;;;;;;20.42;5.22;;;20.80;99.90;;;;;;5065909;28;20169;-65
2021/07/16 11:36:52;;;;;;;16.23;4.88;;;21.20;99.90;;;;;;5064994;28;20169;-65
2021/07/16 11:39:29;;;;;;;17.30;4.35;;;21.20;99.90;;;;;;5066165;28;20163;-65
2021/07/16 11:41:55;;;;;;;20.20;4.75;;;21.20;99.90;;;;;;5063917;28;20169;-65
2021/07/16 11:44:34;;;;;;;22.83;6.07;;;21.30;99.90;;;;;;5064749;28;20179;-65
2021/07/16 11:47:13;;;;;;;14.65;4.75;;;21.10;99.90;;;;;;5066232;28;20229;-65
2021/07/16 11:49:46;;;;;;;22.90;5.20;;;21.00;99.90;;;;;;5066015;28;20172;-65
2021/07/16 11:52:17;;;;;;;20.92;5.30;;;21.10;99.90;;;;;;5063612;28;20161;-66
2021/07/16 11:54:43;;;;;;;15.27;4.40;;;21.50;99.90;;;;;;5066086;28;20164;-65
2021/07/16 11:57:09;;;;;;;23.27;5.28;;;21.60;99.90;;;;;;5066037;28;20247;-65
2021/07/16 11:59:34;;;;;;;22.42;5.28;;;22.00;99.90;;;;;;5065800;28;20168;-65
2021/07/16 12:02:11;;;;;;;18.15;5.25;;;22.30;99.90;;;;;;5063547;28;20164;-65
2021/07/16 12:04:39;;;;;;;23.50;5.47;;;22.20;99.90;;;;;;5065506;28;20175;-65
2021/07/16 12:07:06;;;;;;;21.20;4.75;;;22.10;99.90;;;;;;5065753;28;20244;-65
2021/07/16 12:09:44;;;;;;;18.08;4.75;;;22.10;99.90;;;;;;5065790;28;20180;-65
2021/07/16 12:12:13;;;;;;;29.83;5.63;;;22.20;99.90;;;;;;5063415;28;20187;-65
2021/07/16 12:14:55;;;;;;;32.35;5.32;;;21.90;99.90;;;;;;5065693;28;20160;-65
2021/07/16 12:17:24;;;;;;;24.88;5.05;;;21.70;99.90;;;;;;5065486;28;20203;-65
2021/07/16 12:19:52;;;;;;;24.73;5.75;;;21.80;99.90;;;;;;5065439;28;20179;-65
2021/07/16 12:22:23;;;;;;;23.92;5.10;;;21.90;99.90;;;;;;5060785;28;20161;-65
2021/07/16 12:24:51;;;;;;;24.03;5.80;;;21.90;99.90;;;;;;5062935;28;20911;-66
2021/07/16 12:27:17;;;;;;;18.88;5.47;;;22.50;99.90;;;;;;5065333;28;20165;-65
2021/07/16 12:29:44;;;;;;;24.85;5.03;;;22.70;99.90;;;;;;5065265;28;20164;-65
2021/07/16 12:32:11;;;;;;;17.67;5.25;;;22.20;99.90;;;;;;5063036;28;20165;-66
2021/07/16 12:34:43;;;;;;;24.67;5.57;;;22.20;99.90;;;;;;5065057;28;20207;-65
2021/07/16 12:37:17;;;;;;;17.48;5.22;;;22.00;99.90;;;;;;5065348;28;20196;-65